sensor_id;sensor_type;location;lat;lon;timestamp;temperature;humidity
10441;DHT22;5268;49.346;9.522;2023-05-17T03:10:04;6.60;99.90
10441;DHT22;5268;49.346;9.522;2023-05-17T03:15:07;6.50;99.90
10441;DHT22;5268;49.346;9.522;2023-05-17T03:20:10;6.50;99.90
10441;DHT22;5268;49.346;9.522;2023-05-17T03:25:14;6.50;99.90
10441;DHT22;5268;49.346;9.522;2023-05-17T03:30:16;6.50;99.90
10441;DHT22;5268;49.346;9.522;2023-05-17T03:35:18;6.40;99.90
10441;DHT22;5268;49.346;9.522;2023-05-17T03:40:22;6.40;99.90
10441;DHT22;5268;49.346;9.522;2023-05-17T03:45:25;6.40;99.90
10441;DHT22;5268;49.346;9.522;2023-05-17T03:50:27;6.40;99.90
10441;DHT22;5268;49.346;9.522;2023-05-17T03:55:32;6.30;99.90
10441;DHT22;5268;49.346;9.522;2023-05-17T04:00:34;6.40;99.90
10441;DHT22;5268;49.346;9.522;2023-05-17T04:05:38;6.30;99.90
10441;DHT22;5268;49.346;9.522;2023-05-17T04:10:41;6.30;99.90
10441;DHT22;5268;49.346;9.522;2023-05-17T04:15:44;6.30;99.90
10441;DHT22;5268;49.346;9.522;2023-05-17T04:20:46;6.40;99.90
10441;DHT22;5268;49.346;9.522;2023-05-17T04:25:49;6.40;99.90
10441;DHT22;5268;49.346;9.522;2023-05-17T04:30:51;6.40;99.90
10441;DHT22;5268;49.346;9.522;2023-05-17T04:35:54;6.50;99.90
10441;DHT22;5268;49.346;9.522;2023-05-17T04:41:01;6.50;99.90
10441;DHT22;5268;49.346;9.522;2023-05-17T04:46:04;6.60;99.90
10441;DHT22;5268;49.346;9.522;2023-05-17T04:51:06;6.60;99.90
10441;DHT22;5268;49.346;9.522;2023-05-17T04:56:10;6.70;99.90
10441;DHT22;5268;49.346;9.522;2023-05-17T05:01:12;6.70;99.90
10441;DHT22;5268;49.346;9.522;2023-05-17T05:06:14;6.80;99.90
10441;DHT22;5268;49.346;9.522;2023-05-17T05:11:17;6.90;99.90
10441;DHT22;5268;49.346;9.522;2023-05-17T05:16:19;7.10;99.90
10441;DHT22;5268;49.346;9.522;2023-05-17T05:21:21;7.30;99.90
10441;DHT22;5268;49.346;9.522;2023-05-17T05:26:26;7.90;99.90
10441;DHT22;5268;49.346;9.522;2023-05-17T05:31:28;8.60;99.90
10441;DHT22;5268;49.346;9.522;2023-05-17T05:36:30;9.20;99.90
10441;DHT22;5268;49.346;9.522;2023-05-17T05:41:34;9.60;99.90
10441;DHT22;5268;49.346;9.522;2023-05-17T05:46:36;9.70;99.90
10441;DHT22;5268;49.346;9.522;2023-05-17T05:51:38;9.60;99.90
10441;DHT22;5268;49.346;9.522;2023-05-17T05:56:41;9.60;99.90
10441;DHT22;5268;49.346;9.522;2023-05-17T06:01:43;9.60;99.90
10441;DHT22;5268;49.346;9.522;2023-05-17T06:06:45;9.70;99.90
10441;DHT22;5268;49.346;9.522;2023-05-17T06:11:51;9.90;99.90
10441;DHT22;5268;49.346;9.522;2023-05-17T06:16:54;10.10;99.90
10441;DHT22;5268;49.346;9.522;2023-05-17T06:21:56;10.40;99.90
10441;DHT22;5268;49.346;9.522;2023-05-17T06:26:59;10.60;99.90
10441;DHT22;5268;49.346;9.522;2023-05-17T06:32:01;10.80;99.90
10441;DHT22;5268;49.346;9.522;2023-05-17T06:37:03;11.00;99.90
10441;DHT22;5268;49.346;9.522;2023-05-17T06:42:07;11.30;99.90
10441;DHT22;5268;49.346;9.522;2023-05-17T06:47:09;11.50;99.90
10441;DHT22;5268;49.346;9.522;2023-05-17T06:52:11;11.80;99.90
10441;DHT22;5268;49.346;9.522;2023-05-17T06:57:14;12.20;99.90
10441;DHT22;5268;49.346;9.522;2023-05-17T07:02:16;12.50;99.90
10441;DHT22;5268;49.346;9.522;2023-05-17T07:07:18;12.80;99.90
10441;DHT22;5268;49.346;9.522;2023-05-17T07:12:23;12.90;99.90
10441;DHT22;5268;49.346;9.522;2023-05-17T07:17:25;13.10;99.90
10441;DHT22;5268;49.346;9.522;2023-05-17T07:22:27;13.30;99.90
10441;DHT22;5268;49.346;9.522;2023-05-17T07:27:30;13.40;99.90
10441;DHT22;5268;49.346;9.522;2023-05-17T07:32:32;13.50;99.90
10441;DHT22;5268;49.346;9.522;2023-05-17T07:37:34;13.60;99.90
10441;DHT22;5268;49.346;9.522;2023-05-17T07:42:37;13.80;99.90
10441;DHT22;5268;49.346;9.522;2023-05-17T07:47:39;14.00;99.90
10441;DHT22;5268;49.346;9.522;2023-05-17T07:52:41;13.90;99.90
10441;DHT22;5268;49.346;9.522;2023-05-17T07:57:45;14.10;99.90
10441;DHT22;5268;49.346;9.522;2023-05-17T08:02:48;14.50;99.90
10441;DHT22;5268;49.346;9.522;2023-05-17T08:07:50;14.90;99.90
10441;DHT22;5268;49.346;9.522;2023-05-17T08:12:54;15.00;99.90
10441;DHT22;5268;49.346;9.522;2023-05-17T08:17:56;14.70;99.90
10441;DHT22;5268;49.346;9.522;2023-05-17T08:22:58;14.80;99.90
10441;DHT22;5268;49.346;9.522;2023-05-17T08:28:01;14.80;99.90
10441;DHT22;5268;49.346;9.522;2023-05-17T08:33:04;14.70;99.90
10441;DHT22;5268;49.346;9.522;2023-05-17T08:38:06;14.70;99.90
10441;DHT22;5268;49.346;9.522;2023-05-17T08:43:11;14.60;99.90
10441;DHT22;5268;49.346;9.522;2023-05-17T08:48:14;14.30;99.90
10441;DHT22;5268;49.346;9.522;2023-05-17T08:53:17;14.30;99.90
10441;DHT22;5268;49.346;9.522;2023-05-17T08:58:24;14.00;99.90
10441;DHT22;5268;49.346;9.522;2023-05-17T09:03:28;13.90;99.90
10441;DHT22;5268;49.346;9.522;2023-05-17T09:08:31;13.90;99.90
10441;DHT22;5268;49.346;9.522;2023-05-17T09:13:35;13.90;99.90
10441;DHT22;5268;49.346;9.522;2023-05-17T09:18:37;14.00;99.90
10441;DHT22;5268;49.346;9.522;2023-05-17T09:23:39;14.00;99.90
10441;DHT22;5268;49.346;9.522;2023-05-17T09:28:43;13.90;99.90
10441;DHT22;5268;49.346;9.522;2023-05-17T09:33:45;14.00;99.90
10441;DHT22;5268;49.346;9.522;2023-05-17T09:38:52;14.00;99.90
10441;DHT22;5268;49.346;9.522;2023-05-17T09:43:59;14.10;99.90
10441;DHT22;5268;49.346;9.522;2023-05-17T09:49:01;14.30;99.90
10441;DHT22;5268;49.346;9.522;2023-05-17T09:54:05;14.30;99.90
10441;DHT22;5268;49.346;9.522;2023-05-17T09:59:12;14.30;99.90
10441;DHT22;5268;49.346;9.522;2023-05-17T10:04:14;14.30;99.90
10441;DHT22;5268;49.346;9.522;2023-05-17T10:09:21;14.40;99.90
10441;DHT22;5268;49.346;9.522;2023-05-17T10:14:27;14.40;99.90
10441;DHT22;5268;49.346;9.522;2023-05-17T10:19:31;14.40;99.90
10441;DHT22;5268;49.346;9.522;2023-05-17T10:24:34;14.50;99.90
10441;DHT22;5268;49.346;9.522;2023-05-17T10:29:38;14.50;99.90
10441;DHT22;5268;49.346;9.522;2023-05-17T10:34:42;14.40;99.90
10441;DHT22;5268;49.346;9.522;2023-05-17T10:39:44;14.30;99.90
10441;DHT22;5268;49.346;9.522;2023-05-17T10:44:52;14.30;99.90
10441;DHT22;5268;49.346;9.522;2023-05-17T10:49:54;14.20;99.90
10441;DHT22;5268;49.346;9.522;2023-05-17T10:54:58;14.20;99.90
10441;DHT22;5268;49.346;9.522;2023-05-17T11:00:04;14.10;99.90
10441;DHT22;5268;49.346;9.522;2023-05-17T11:05:22;14.10;99.90
10441;DHT22;5268;49.346;9.522;2023-05-17T11:10:24;14.10;99.90
10441;DHT22;5268;49.346;9.522;2023-05-17T11:15:32;14.00;99.90
10441;DHT22;5268;49.346;9.522;2023-05-17T11:20:34;13.90;99.90
10441;DHT22;5268;49.346;9.522;2023-05-17T11:25:37;13.90;99.90
10441;DHT22;5268;49.346;9.522;2023-05-17T11:30:41;13.80;99.90
10441;DHT22;5268;49.346;9.522;2023-05-17T11:35:53;13.90;99.90
10441;DHT22;5268;49.346;9.522;2023-05-17T11:40:56;13.90;99.90
10441;DHT22;5268;49.346;9.522;2023-05-17T11:45:59;14.00;99.90
10441;DHT22;5268;49.346;9.522;2023-05-17T11:51:02;14.10;99.90
10441;DHT22;5268;49.346;9.522;2023-05-17T11:56:06;14.20;99.90
10441;DHT22;5268;49.346;9.522;2023-05-17T12:01:12;14.10;99.90
10441;DHT22;5268;49.346;9.522;2023-05-17T12:06:15;14.10;99.90
10441;DHT22;5268;49.346;9.522;2023-05-17T12:11:18;14.00;99.90
10441;DHT22;5268;49.346;9.522;2023-05-17T12:16:22;13.80;99.90
10441;DHT22;5268;49.346;9.522;2023-05-17T12:21:25;13.80;99.90
10441;DHT22;5268;49.346;9.522;2023-05-17T12:26:27;13.70;99.90
10441;DHT22;5268;49.346;9.522;2023-05-17T12:31:32;13.80;99.90
10441;DHT22;5268;49.346;9.522;2023-05-17T12:36:35;13.80;99.90
10441;DHT22;5268;49.346;9.522;2023-05-17T12:41:38;13.90;99.90
10441;DHT22;5268;49.346;9.522;2023-05-17T12:46:42;14.00;99.90
10441;DHT22;5268;49.346;9.522;2023-05-17T12:51:45;14.10;99.90
10441;DHT22;5268;49.346;9.522;2023-05-17T12:56:47;14.30;99.90
10441;DHT22;5268;49.346;9.522;2023-05-17T13:01:52;14.40;99.90
10441;DHT22;5268;49.346;9.522;2023-05-17T13:06:57;14.60;99.90
10441;DHT22;5268;49.346;9.522;2023-05-17T13:12:00;14.80;99.90
10441;DHT22;5268;49.346;9.522;2023-05-17T13:17:05;15.10;99.90
10441;DHT22;5268;49.346;9.522;2023-05-17T13:22:09;15.30;99.90
10441;DHT22;5268;49.346;9.522;2023-05-17T13:27:11;15.60;99.90
10441;DHT22;5268;49.346;9.522;2023-05-17T13:32:15;15.80;99.90
10441;DHT22;5268;49.346;9.522;2023-05-17T13:37:17;15.90;99.90
10441;DHT22;5268;49.346;9.522;2023-05-17T13:42:20;15.80;99.90
10441;DHT22;5268;49.346;9.522;2023-05-17T13:47:24;15.70;99.90
10441;DHT22;5268;49.346;9.522;2023-05-17T13:52:26;15.60;99.90
10441;DHT22;5268;49.346;9.522;2023-05-17T13:57:28;15.80;99.90
10441;DHT22;5268;49.346;9.522;2023-05-17T14:02:32;15.80;99.90
10441;DHT22;5268;49.346;9.522;2023-05-17T14:07:34;15.80;99.90
10441;DHT22;5268;49.346;9.522;2023-05-17T14:12:36;15.80;99.90
10441;DHT22;5268;49.346;9.522;2023-05-17T14:17:39;16.00;99.90
10441;DHT22;5268;49.346;9.522;2023-05-17T14:22:41;16.10;99.90
10441;DHT22;5268;49.346;9.522;2023-05-17T14:27:43;16.10;99.90
10441;DHT22;5268;49.346;9.522;2023-05-17T14:32:46;16.10;99.90
10441;DHT22;5268;49.346;9.522;2023-05-17T14:37:48;16.20;99.90
10441;DHT22;5268;49.346;9.522;2023-05-17T14:42:50;16.20;99.90
10441;DHT22;5268;49.346;9.522;2023-05-17T14:47:54;15.80;99.90
10441;DHT22;5268;49.346;9.522;2023-05-17T14:52:55;15.90;99.90
10441;DHT22;5268;49.346;9.522;2023-05-17T14:57:57;15.80;99.90
10441;DHT22;5268;49.346;9.522;2023-05-17T15:03:02;15.50;99.90
10441;DHT22;5268;49.346;9.522;2023-05-17T15:08:04;15.60;99.90
10441;DHT22;5268;49.346;9.522;2023-05-17T15:13:06;15.60;99.90
10441;DHT22;5268;49.346;9.522;2023-05-17T15:18:10;15.70;99.90
10441;DHT22;5268;49.346;9.522;2023-05-17T15:23:13;15.90;99.90
10441;DHT22;5268;49.346;9.522;2023-05-17T15:28:15;16.00;99.90
10441;DHT22;5268;49.346;9.522;2023-05-17T15:33:20;16.10;99.90
10441;DHT22;5268;49.346;9.522;2023-05-17T15:38:23;16.30;99.90
10441;DHT22;5268;49.346;9.522;2023-05-17T15:43:24;16.30;99.90
10441;DHT22;5268;49.346;9.522;2023-05-17T15:48:28;16.20;99.90
10441;DHT22;5268;49.346;9.522;2023-05-17T15:53:31;15.80;99.90
10441;DHT22;5268;49.346;9.522;2023-05-17T15:58:33;15.80;99.90
10441;DHT22;5268;49.346;9.522;2023-05-17T16:03:36;15.50;99.90
10441;DHT22;5268;49.346;9.522;2023-05-17T16:08:39;15.50;99.90
10441;DHT22;5268;49.346;9.522;2023-05-17T16:13:41;15.50;99.90
10441;DHT22;5268;49.346;9.522;2023-05-17T16:18:45;15.50;99.90
10441;DHT22;5268;49.346;9.522;2023-05-17T16:23:47;15.40;99.90
10441;DHT22;5268;49.346;9.522;2023-05-17T16:28:49;15.50;99.90
10441;DHT22;5268;49.346;9.522;2023-05-17T16:33:52;15.50;99.90
10441;DHT22;5268;49.346;9.522;2023-05-17T16:38:54;15.20;99.90
10441;DHT22;5268;49.346;9.522;2023-05-17T16:43:56;15.40;99.90
10441;DHT22;5268;49.346;9.522;2023-05-17T16:49:00;15.50;99.90
10441;DHT22;5268;49.346;9.522;2023-05-17T16:54:02;15.50;99.90
10441;DHT22;5268;49.346;9.522;2023-05-17T16:59:03;15.50;99.90
10441;DHT22;5268;49.346;9.522;2023-05-17T17:04:07;15.50;99.90
10441;DHT22;5268;49.346;9.522;2023-05-17T17:09:10;15.40;99.90
10441;DHT22;5268;49.346;9.522;2023-05-17T17:14:11;15.40;99.90
10441;DHT22;5268;49.346;9.522;2023-05-17T17:19:15;15.50;99.90
10441;DHT22;5268;49.346;9.522;2023-05-17T17:24:17;15.50;99.90
10441;DHT22;5268;49.346;9.522;2023-05-17T17:29:19;15.50;99.90
10441;DHT22;5268;49.346;9.522;2023-05-17T17:34:22;15.20;99.90
10441;DHT22;5268;49.346;9.522;2023-05-17T17:39:24;15.10;99.90
10441;DHT22;5268;49.346;9.522;2023-05-17T17:44:26;15.20;99.90
10441;DHT22;5268;49.346;9.522;2023-05-17T17:49:30;15.10;99.90
10441;DHT22;5268;49.346;9.522;2023-05-17T17:54:32;15.10;99.90
10441;DHT22;5268;49.346;9.522;2023-05-17T17:59:34;15.20;99.90
10441;DHT22;5268;49.346;9.522;2023-05-17T18:04:37;15.20;99.90
10441;DHT22;5268;49.346;9.522;2023-05-17T18:09:40;15.20;99.90
10441;DHT22;5268;49.346;9.522;2023-05-17T18:14:42;15.10;99.90
10441;DHT22;5268;49.346;9.522;2023-05-17T18:19:45;15.00;99.90
10441;DHT22;5268;49.346;9.522;2023-05-17T18:24:47;14.90;99.90
10441;DHT22;5268;49.346;9.522;2023-05-17T18:29:52;14.70;99.90
10441;DHT22;5268;49.346;9.522;2023-05-17T18:34:55;14.70;99.90
10441;DHT22;5268;49.346;9.522;2023-05-17T18:39:57;14.50;99.90
10441;DHT22;5268;49.346;9.522;2023-05-17T18:45:01;14.30;99.90
10441;DHT22;5268;49.346;9.522;2023-05-17T18:50:05;14.10;99.90
10441;DHT22;5268;49.346;9.522;2023-05-17T18:55:08;14.00;99.90
10441;DHT22;5268;49.346;9.522;2023-05-17T19:00:11;13.80;99.90
10441;DHT22;5268;49.346;9.522;2023-05-17T19:05:15;13.60;99.90
10441;DHT22;5268;49.346;9.522;2023-05-17T19:10:17;13.40;99.90
10441;DHT22;5268;49.346;9.522;2023-05-17T19:15:20;13.30;99.90
10441;DHT22;5268;49.346;9.522;2023-05-17T19:20:23;13.10;99.90
10441;DHT22;5268;49.346;9.522;2023-05-17T19:25:26;12.90;99.90
10441;DHT22;5268;49.346;9.522;2023-05-17T19:30:28;12.80;99.90
10441;DHT22;5268;49.346;9.522;2023-05-17T19:35:32;12.60;99.90
10441;DHT22;5268;49.346;9.522;2023-05-17T19:40:36;12.50;99.90
10441;DHT22;5268;49.346;9.522;2023-05-17T19:45:40;12.40;99.90
10441;DHT22;5268;49.346;9.522;2023-05-17T19:50:43;12.30;99.90
10441;DHT22;5268;49.346;9.522;2023-05-17T19:55:45;12.20;99.90
10441;DHT22;5268;49.346;9.522;2023-05-17T20:00:47;12.10;99.90
10441;DHT22;5268;49.346;9.522;2023-05-17T20:05:51;12.00;99.90
10441;DHT22;5268;49.346;9.522;2023-05-17T20:10:54;11.90;99.90
10441;DHT22;5268;49.346;9.522;2023-05-17T20:15:57;11.80;99.90
10441;DHT22;5268;49.346;9.522;2023-05-17T20:21:04;11.70;99.90
10441;DHT22;5268;49.346;9.522;2023-05-17T20:26:07;11.60;99.90
10441;DHT22;5268;49.346;9.522;2023-05-17T20:31:15;11.40;99.90
10441;DHT22;5268;49.346;9.522;2023-05-17T20:36:19;11.30;99.90
10441;DHT22;5268;49.346;9.522;2023-05-17T20:41:21;11.20;99.90
10441;DHT22;5268;49.346;9.522;2023-05-17T20:46:22;11.10;99.90
10441;DHT22;5268;49.346;9.522;2023-05-17T20:51:26;11.00;99.90
10441;DHT22;5268;49.346;9.522;2023-05-17T20:56:28;10.80;99.90
10441;DHT22;5268;49.346;9.522;2023-05-17T21:01:30;10.60;99.90
10441;DHT22;5268;49.346;9.522;2023-05-17T21:06:34;10.50;99.90
10441;DHT22;5268;49.346;9.522;2023-05-17T21:11:36;10.30;99.90
10441;DHT22;5268;49.346;9.522;2023-05-17T21:16:38;10.20;99.90
10441;DHT22;5268;49.346;9.522;2023-05-17T21:21:41;10.10;99.90
10441;DHT22;5268;49.346;9.522;2023-05-17T21:26:43;10.10;99.90
10441;DHT22;5268;49.346;9.522;2023-05-17T21:31:45;10.00;99.90
10441;DHT22;5268;49.346;9.522;2023-05-17T21:36:48;10.00;99.90
10441;DHT22;5268;49.346;9.522;2023-05-17T21:41:50;9.80;99.90
10441;DHT22;5268;49.346;9.522;2023-05-17T21:46:52;9.80;99.90
10441;DHT22;5268;49.346;9.522;2023-05-17T21:51:55;9.70;99.90
